Time;durP1;ratioP1;P1;durP2;ratioP2;P2;SDS_P1;SDS_P2;PMS_P1;PMS_P2;Temp;Humidity;BMP_temperature;BMP_pressure;BME280_temperature;BME280_humidity;BME280_pressure;Samples;Min_cycle;Max_cycle;Signal;HPM_P1;HPM_P2
2023/08/23 00:01:07;;;;;;;13.15;8.95;;;17.10;99.90;;;;;;5082203;28;20049;-56
2023/08/23 00:03:32;;;;;;;12.48;9.50;;;17.10;99.90;;;;;;5073795;28;20055;-56
2023/08/23 00:05:58;;;;;;;11.07;9.93;;;17.10;99.90;;;;;;5092968;28;20071;-57
2023/08/23 00:08:24;;;;;;;12.07;10.07;;;17.10;99.90;;;;;;5059887;28;20056;-56
2023/08/23 00:10:54;;;;;;;11.15;9.98;;;17.10;99.90;;;;;;5082497;28;20040;-56
2023/08/23 00:13:20;;;;;;;12.00;10.60;;;17.10;99.90;;;;;;5082804;28;20045;-56
2023/08/23 00:15:45;;;;;;;11.90;10.57;;;17.00;99.90;;;;;;5080836;28;20037;-57
2023/08/23 00:18:11;;;;;;;16.10;10.80;;;17.00;99.90;;;;;;5083927;28;20044;-57
2023/08/23 00:20:37;;;;;;;13.43;10.45;;;17.00;99.90;;;;;;5079043;28;20037;-57
2023/08/23 00:23:02;;;;;;;13.57;10.55;;;16.90;99.90;;;;;;5073961;28;20058;-57
2023/08/23 00:25:28;;;;;;;12.70;10.18;;;16.90;99.90;;;;;;5090085;28;20048;-57
2023/08/23 00:27:54;;;;;;;12.77;10.27;;;16.90;99.90;;;;;;5081169;28;20045;-56
2023/08/23 00:30:19;;;;;;;12.68;10.13;;;16.80;99.90;;;;;;5081758;28;20657;-57
2023/08/23 00:32:45;;;;;;;14.32;9.93;;;16.80;99.90;;;;;;5080039;28;20123;-58
2023/08/23 00:35:11;;;;;;;12.05;9.15;;;16.80;99.90;;;;;;5080723;28;20040;-57
2023/08/23 00:37:36;;;;;;;10.63;9.00;;;16.80;99.90;;;;;;5079062;28;20051;-56
2023/08/23 00:40:02;;;;;;;9.73;8.73;;;16.80;99.90;;;;;;5087956;28;20172;-57
2023/08/23 00:42:28;;;;;;;11.88;8.52;;;16.70;99.90;;;;;;5082586;28;20058;-56
2023/08/23 00:44:54;;;;;;;11.95;8.70;;;16.70;99.90;;;;;;5093065;28;20040;-56
2023/08/23 00:47:20;;;;;;;12.30;9.15;;;16.70;99.90;;;;;;5102091;28;20051;-56
2023/08/23 00:49:46;;;;;;;12.30;9.35;;;16.70;99.90;;;;;;5078269;28;20069;-57
2023/08/23 00:52:12;;;;;;;11.75;9.43;;;16.70;99.90;;;;;;5083107;28;20060;-57
2023/08/23 00:54:38;;;;;;;13.55;9.65;;;16.70;99.90;;;;;;5078971;28;20065;-56
2023/08/23 00:57:06;;;;;;;13.60;9.05;;;16.70;99.90;;;;;;5085723;28;20044;-57
2023/08/23 00:59:32;;;;;;;10.85;9.55;;;16.60;99.90;;;;;;5081840;28;20107;-56
2023/08/23 01:01:59;;;;;;;12.82;10.07;;;16.60;99.90;;;;;;5082161;28;20618;-57
2023/08/23 01:04:24;;;;;;;10.88;9.45;;;16.60;99.90;;;;;;5097435;28;20044;-57
2023/08/23 01:07:08;;;;;;;11.77;9.30;;;16.60;99.90;;;;;;5081159;28;20045;-57
2023/08/23 01:09:53;;;;;;;16.02;10.20;;;16.60;99.90;;;;;;5082242;28;20068;-56
2023/08/23 01:12:34;;;;;;;12.43;9.93;;;16.50;99.90;;;;;;5072666;28;20049;-57
2023/08/23 01:15:05;;;;;;;12.00;9.68;;;16.50;99.90;;;;;;5068929;28;20059;-57
2023/08/23 01:17:32;;;;;;;12.90;10.25;;;16.50;99.90;;;;;;5100116;28;20060;-57
2023/08/23 01:19:59;;;;;;;13.77;9.95;;;15.80;99.90;;;;;;5100521;28;20059;-56
2023/08/23 01:22:29;;;;;;;12.40;9.93;;;16.40;99.90;;;;;;5102187;28;20113;-56
2023/08/23 01:24:55;;;;;;;12.35;9.35;;;16.40;99.90;;;;;;5089700;28;20048;-56
2023/08/23 01:27:21;;;;;;;11.20;9.30;;;16.30;99.90;;;;;;5090713;28;20040;-56
2023/08/23 01:29:47;;;;;;;13.48;9.73;;;16.30;99.90;;;;;;5069590;28;20110;-56
2023/08/23 01:32:37;;;;;;;13.57;9.82;;;16.20;99.90;;;;;;5078072;28;20917;-56
2023/08/23 01:35:14;;;;;;;14.40;9.52;;;16.20;99.90;;;;;;5087469;28;20040;-57
2023/08/23 01:37:43;;;;;;;10.55;9.40;;;16.20;99.90;;;;;;5094530;28;20092;-57
2023/08/23 01:40:10;;;;;;;12.00;10.15;;;16.10;99.90;;;;;;5083047;28;20111;-56
2023/08/23 01:42:37;;;;;;;13.40;10.25;;;16.20;99.90;;;;;;5092080;28;20037;-56
2023/08/23 01:45:04;;;;;;;11.88;9.82;;;16.10;99.90;;;;;;5080696;28;20053;-57
2023/08/23 01:47:30;;;;;;;13.50;9.93;;;16.10;99.90;;;;;;5086528;28;20040;-56
2023/08/23 01:49:55;;;;;;;12.48;10.68;;;16.10;99.90;;;;;;5085501;28;20047;-58
2023/08/23 01:52:21;;;;;;;15.35;10.27;;;16.10;99.90;;;;;;5081544;28;20049;-56
2023/08/23 01:54:46;;;;;;;13.82;10.80;;;16.10;99.90;;;;;;5078397;28;20079;-56
2023/08/23 01:57:12;;;;;;;15.57;10.82;;;16.00;99.90;;;;;;5089065;28;20040;-56
2023/08/23 01:59:38;;;;;;;13.25;10.60;;;16.00;99.90;;;;;;5080765;28;20075;-56
2023/08/23 02:02:04;;;;;;;15.95;11.10;;;15.90;99.90;;;;;;5080853;28;20099;-57
2023/08/23 02:04:30;;;;;;;13.07;10.57;;;15.90;99.90;;;;;;5069483;28;20477;-57
2023/08/23 02:06:55;;;;;;;13.82;11.00;;;15.80;99.90;;;;;;5086645;28;20071;-57
2023/08/23 02:09:21;;;;;;;13.60;11.40;;;15.80;99.90;;;;;;5081812;28;20045;-56
2023/08/23 02:11:47;;;;;;;13.85;10.65;;;15.80;99.90;;;;;;5078880;28;20086;-57
2023/08/23 02:14:12;;;;;;;15.55;10.68;;;15.90;99.90;;;;;;5081465;28;20087;-56
2023/08/23 02:16:38;;;;;;;13.07;10.88;;;15.90;99.90;;;;;;5083365;28;20039;-56
2023/08/23 02:19:04;;;;;;;13.98;11.07;;;15.80;99.90;;;;;;5095099;28;20063;-56
2023/08/23 02:21:30;;;;;;;16.23;12.25;;;15.80;99.90;;;;;;5080085;28;20032;-56
2023/08/23 02:23:55;;;;;;;16.77;11.43;;;15.80;99.90;;;;;;5099858;28;20377;-57
2023/08/23 02:26:21;;;;;;;14.00;11.88;;;15.80;99.90;;;;;;5100279;28;20032;-56
2023/08/23 02:28:46;;;;;;;25.38;12.23;;;15.70;99.90;;;;;;5082409;28;20059;-56
2023/08/23 02:31:12;;;;;;;22.85;12.32;;;15.70;99.90;;;;;;5096307;28;20047;-57
2023/08/23 02:33:38;;;;;;;14.20;11.93;;;15.60;99.90;;;;;;5088687;28;20032;-56
2023/08/23 02:36:04;;;;;;;15.40;11.95;;;15.60;99.90;;;;;;5080156;28;20051;-57
2023/08/23 02:38:29;;;;;;;14.32;11.80;;;15.60;99.90;;;;;;5078148;28;20119;-56
2023/08/23 02:40:55;;;;;;;13.05;11.63;;;15.60;99.90;;;;;;5079277;28;20098;-57
2023/08/23 02:43:22;;;;;;;12.82;11.38;;;15.60;99.90;;;;;;5080126;28;20052;-57
2023/08/23 02:45:47;;;;;;;12.30;10.40;;;15.60;99.90;;;;;;5079157;28;20094;-57
2023/08/23 02:48:13;;;;;;;13.05;11.75;;;15.60;99.90;;;;;;5067007;28;20037;-57
2023/08/23 02:50:39;;;;;;;13.90;11.43;;;15.60;99.90;;;;;;5078044;28;20039;-56
2023/08/23 02:53:05;;;;;;;11.68;10.45;;;15.60;99.90;;;;;;5081238;28;20063;-56
2023/08/23 02:55:35;;;;;;;12.10;10.80;;;15.60;99.90;;;;;;5074428;28;20102;-57
2023/08/23 02:58:01;;;;;;;12.70;11.40;;;15.60;99.90;;;;;;5079096;28;20079;-56
2023/08/23 03:00:26;;;;;;;12.63;10.85;;;15.50;99.90;;;;;;5075817;28;20045;-57
2023/08/23 03:02:52;;;;;;;13.68;10.77;;;15.50;99.90;;;;;;5068980;28;20040;-56
2023/08/23 03:05:18;;;;;;;11.00;9.90;;;15.50;99.90;;;;;;5100853;28;20044;-57
2023/08/23 03:07:43;;;;;;;10.63;9.40;;;15.50;99.90;;;;;;5089919;28;20041;-57
2023/08/23 03:10:09;;;;;;;11.10;10.00;;;15.50;99.90;;;;;;5080545;28;20045;-56
2023/08/23 03:12:35;;;;;;;10.70;9.60;;;15.50;99.90;;;;;;5069166;28;20037;-56
2023/08/23 03:15:01;;;;;;;10.73;9.43;;;15.50;99.90;;;;;;5076062;28;20530;-56
2023/08/23 03:17:26;;;;;;;13.00;9.52;;;15.50;99.90;;;;;;5080370;28;20040;-56
2023/08/23 03:19:52;;;;;;;9.95;8.80;;;15.50;99.90;;;;;;5078530;28;20040;-56
2023/08/23 03:22:18;;;;;;;13.40;10.07;;;15.50;99.90;;;;;;5080381;28;20040;-56
2023/08/23 03:24:43;;;;;;;11.10;9.50;;;15.50;99.90;;;;;;5074565;28;20050;-57
2023/08/23 03:27:09;;;;;;;10.40;9.00;;;15.50;99.90;;;;;;5093760;28;20041;-56
2023/08/23 03:29:34;;;;;;;12.32;9.20;;;15.40;99.90;;;;;;5080267;28;20028;-56
2023/08/23 03:32:00;;;;;;;10.75;8.52;;;15.50;99.90;;;;;;5078442;28;20767;-56
2023/08/23 03:34:26;;;;;;;12.52;9.25;;;15.50;99.90;;;;;;5095272;28;20063;-57
2023/08/23 03:36:52;;;;;;;9.85;8.85;;;15.50;99.90;;;;;;5098275;28;20064;-57
2023/08/23 03:39:17;;;;;;;10.45;9.30;;;15.50;99.90;;;;;;5084969;28;20095;-55
2023/08/23 03:41:43;;;;;;;10.60;9.50;;;15.50;99.90;;;;;;5097459;28;20041;-57
2023/08/23 03:44:08;;;;;;;9.35;8.30;;;15.50;99.90;;;;;;5101204;28;20047;-57
2023/08/23 03:46:34;;;;;;;11.38;9.18;;;15.50;99.90;;;;;;5081874;28;20036;-57
2023/08/23 03:49:00;;;;;;;10.15;9.15;;;15.40;99.90;;;;;;5101081;28;20036;-57
2023/08/23 03:51:25;;;;;;;11.93;8.52;;;15.40;99.90;;;;;;5099844;28;20048;-57
2023/08/23 03:53:51;;;;;;;11.63;9.27;;;15.40;99.90;;;;;;5078040;28;20127;-56
2023/08/23 03:56:17;;;;;;;10.90;8.63;;;15.40;99.90;;;;;;5075284;28;20040;-56
2023/08/23 03:58:43;;;;;;;9.95;8.45;;;15.40;99.90;;;;;;5081760;28;20086;-56
2023/08/23 04:01:08;;;;;;;10.15;7.80;;;15.40;99.90;;;;;;5084104;28;20208;-57
2023/08/23 04:03:34;;;;;;;9.35;8.45;;;15.40;99.90;;;;;;5063837;28;20037;-57
2023/08/23 04:06:02;;;;;;;9.60;8.60;;;15.40;99.90;;;;;;5063439;28;20390;-57
2023/08/23 04:08:28;;;;;;;12.20;8.65;;;15.40;99.90;;;;;;5063705;28;20041;-56
2023/08/23 04:10:53;;;;;;;9.85;8.43;;;15.30;99.90;;;;;;5072893;28;20071;-56
2023/08/23 04:13:19;;;;;;;11.85;8.70;;;15.30;99.90;;;;;;5075127;28;20521;-56
2023/08/23 04:15:45;;;;;;;9.52;8.50;;;15.30;99.90;;;;;;5061456;28;20532;-56
2023/08/23 04:18:11;;;;;;;12.63;9.50;;;15.30;99.90;;;;;;5063937;28;20041;-56
2023/08/23 04:20:38;;;;;;;11.63;9.98;;;15.20;99.90;;;;;;5062595;28;20425;-56
2023/08/23 04:23:04;;;;;;;15.52;10.25;;;15.20;99.90;;;;;;5063203;28;20132;-57
2023/08/23 04:25:30;;;;;;;13.63;10.00;;;15.20;99.90;;;;;;5062738;28;20067;-55
2023/08/23 04:27:56;;;;;;;14.10;10.27;;;15.20;99.90;;;;;;5081081;28;20099;-57
2023/08/23 04:30:21;;;;;;;11.20;9.38;;;15.20;99.90;;;;;;5083396;28;20033;-56
2023/08/23 04:32:47;;;;;;;13.95;9.73;;;15.20;99.90;;;;;;5081314;28;20044;-56
2023/08/23 04:35:13;;;;;;;12.20;10.00;;;15.20;99.90;;;;;;5083644;28;20063;-56
2023/08/23 04:37:38;;;;;;;13.52;9.38;;;15.20;99.90;;;;;;5065867;28;20044;-56
2023/08/23 04:40:08;;;;;;;11.27;9.25;;;15.20;99.90;;;;;;5101368;28;20059;-56
2023/08/23 04:42:34;;;;;;;11.82;9.68;;;15.20;99.90;;;;;;5091272;28;20037;-56
2023/08/23 04:45:03;;;;;;;11.20;8.95;;;15.20;99.90;;;;;;5070814;28;20035;-56
2023/08/23 04:47:30;;;;;;;12.93;10.20;;;15.20;99.90;;;;;;5102415;28;20040;-55
2023/08/23 04:49:56;;;;;;;12.00;9.45;;;15.20;99.90;;;;;;5082556;28;20096;-56
2023/08/23 04:52:22;;;;;;;11.48;10.27;;;15.20;99.90;;;;;;5082726;28;20071;-56
2023/08/23 04:54:48;;;;;;;12.63;10.55;;;15.20;99.90;;;;;;5081925;28;20423;-55
2023/08/23 04:57:13;;;;;;;14.38;10.15;;;15.20;99.90;;;;;;5075105;28;20039;-56
2023/08/23 04:59:39;;;;;;;12.15;10.13;;;15.20;99.90;;;;;;5081028;28;20071;-56
2023/08/23 05:02:04;;;;;;;17.38;9.93;;;15.20;99.90;;;;;;5081803;28;20046;-56
2023/08/23 05:04:30;;;;;;;12.75;10.20;;;15.20;99.90;;;;;;5082613;28;20055;-56
2023/08/23 05:06:56;;;;;;;11.35;9.85;;;15.20;99.90;;;;;;5081059;28;20515;-56
2023/08/23 05:09:22;;;;;;;12.10;10.75;;;15.20;99.90;;;;;;5099293;28;20038;-56
2023/08/23 05:11:47;;;;;;;14.57;10.05;;;15.20;99.90;;;;;;5073675;28;20071;-56
2023/08/23 05:14:13;;;;;;;12.55;9.50;;;15.20;99.90;;;;;;5074637;28;20060;-56
2023/08/23 05:16:39;;;;;;;12.98;10.65;;;15.20;99.90;;;;;;5078366;28;20408;-56
2023/08/23 05:19:04;;;;;;;14.90;10.90;;;15.20;99.90;;;;;;5066869;28;20037;-56
2023/08/23 05:21:30;;;;;;;15.13;10.27;;;15.20;99.90;;;;;;5086679;28;20032;-56
2023/08/23 05:23:56;;;;;;;13.05;10.05;;;15.10;99.90;;;;;;5086813;28;20497;-56
2023/08/23 05:26:21;;;;;;;17.80;10.50;;;15.20;99.90;;;;;;5079938;28;20044;-56
2023/08/23 05:28:47;;;;;;;14.63;9.93;;;15.20;99.90;;;;;;5080824;28;20048;-56
2023/08/23 05:31:15;;;;;;;14.88;9.80;;;15.10;99.90;;;;;;5082598;28;20072;-55
2023/08/23 05:33:42;;;;;;;18.02;10.50;;;15.20;99.90;;;;;;5081083;28;20440;-56
2023/08/23 05:36:07;;;;;;;13.90;10.68;;;15.10;99.90;;;;;;5083532;28;20071;-56
2023/08/23 05:38:33;;;;;;;13.75;10.35;;;15.10;99.90;;;;;;5101639;28;20029;-56
2023/08/23 05:40:59;;;;;;;11.27;10.10;;;15.10;99.90;;;;;;5098244;28;20036;-56
2023/08/23 05:43:24;;;;;;;12.05;9.55;;;15.10;99.90;;;;;;5060228;28;20087;-56
2023/08/23 05:45:57;;;;;;;12.75;9.32;;;15.10;99.90;;;;;;5098189;28;20055;-56
2023/08/23 05:48:23;;;;;;;13.88;9.75;;;15.10;99.90;;;;;;5102155;28;20055;-56
2023/08/23 05:50:49;;;;;;;13.23;9.70;;;15.20;99.90;;;;;;5095012;28;20543;-56
2023/08/23 05:53:19;;;;;;;12.70;10.10;;;15.20;99.90;;;;;;5092350;28;20108;-56
2023/08/23 05:55:49;;;;;;;12.43;10.38;;;15.30;99.90;;;;;;5094474;28;20040;-56
2023/08/23 05:58:19;;;;;;;11.52;10.32;;;15.40;99.90;;;;;;5077902;28;20056;-56
2023/08/23 06:00:46;;;;;;;13.85;10.52;;;15.40;99.90;;;;;;5083930;28;20063;-57
2023/08/23 06:03:14;;;;;;;14.23;10.38;;;15.50;99.90;;;;;;5077862;28;20032;-56
2023/08/23 06:05:41;;;;;;;11.48;10.27;;;15.60;99.90;;;;;;5069853;28;20398;-56
2023/08/23 06:08:10;;;;;;;14.10;10.55;;;15.60;99.90;;;;;;5060732;28;20112;-56
2023/08/23 06:10:36;;;;;;;13.23;10.43;;;15.70;99.90;;;;;;5067857;28;20028;-56
2023/08/23 06:13:02;;;;;;;13.30;10.85;;;15.80;99.90;;;;;;5076953;28;20040;-56
2023/08/23 06:15:28;;;;;;;13.88;10.73;;;15.90;99.90;;;;;;5075772;28;20029;-56
2023/08/23 06:17:55;;;;;;;15.35;11.45;;;15.90;99.90;;;;;;5079617;28;20048;-56
2023/08/23 06:20:21;;;;;;;15.10;11.18;;;16.00;99.90;;;;;;5079060;28;20512;-56
2023/08/23 06:22:46;;;;;;;14.93;10.18;;;16.00;99.90;;;;;;5078768;28;20524;-56
2023/08/23 06:25:12;;;;;;;12.32;10.82;;;16.10;99.90;;;;;;5094996;28;20059;-56
2023/08/23 06:27:38;;;;;;;13.73;10.65;;;16.10;99.90;;;;;;5081096;28;20041;-57
2023/08/23 06:30:05;;;;;;;15.27;11.27;;;16.10;99.90;;;;;;5079772;28;20045;-57
2023/08/23 06:32:31;;;;;;;14.35;11.70;;;16.20;99.90;;;;;;5072095;28;20040;-56
2023/08/23 06:34:56;;;;;;;13.98;10.70;;;16.20;99.90;;;;;;5081276;28;20064;-57
2023/08/23 06:37:22;;;;;;;14.07;11.43;;;16.30;99.90;;;;;;5085027;28;20174;-56
2023/08/23 06:39:51;;;;;;;16.90;11.70;;;16.40;99.90;;;;;;5087220;28;20045;-56
2023/08/23 06:42:17;;;;;;;15.65;11.88;;;16.50;99.90;;;;;;5076866;28;20070;-55
2023/08/23 06:44:44;;;;;;;13.57;11.40;;;16.50;99.90;;;;;;5070052;28;20419;-56
2023/08/23 06:47:10;;;;;;;14.82;11.50;;;16.50;99.90;;;;;;5076585;28;20101;-56
2023/08/23 06:49:36;;;;;;;14.80;12.02;;;16.60;99.90;;;;;;5079101;28;20539;-54
2023/08/23 06:52:02;;;;;;;16.27;11.50;;;16.80;99.90;;;;;;5079043;28;20032;-56
2023/08/23 06:54:28;;;;;;;14.00;10.40;;;17.00;99.90;;;;;;5078451;28;20060;-56
2023/08/23 06:56:53;;;;;;;13.23;9.90;;;17.30;99.90;;;;;;5086377;28;20055;-56
2023/08/23 06:59:19;;;;;;;11.30;9.57;;;17.60;99.90;;;;;;5097704;28;20069;-56
2023/08/23 07:01:46;;;;;;;11.57;9.68;;;18.00;99.90;;;;;;5076992;28;20052;-56
2023/08/23 07:04:11;;;;;;;11.00;9.13;;;18.40;99.90;;;;;;5076150;28;20041;-55
2023/08/23 07:06:37;;;;;;;13.80;9.05;;;18.80;99.90;;;;;;5076065;28;20056;-57
2023/08/23 07:09:03;;;;;;;11.65;8.80;;;19.20;99.90;;;;;;5078252;28;20055;-56
2023/08/23 07:11:29;;;;;;;12.75;8.40;;;19.50;99.90;;;;;;5057843;28;20523;-56
2023/08/23 07:13:55;;;;;;;9.93;7.57;;;19.80;99.90;;;;;;5060722;28;20087;-56
2023/08/23 07:16:21;;;;;;;13.35;9.13;;;20.00;99.90;;;;;;5059279;28;20076;-57
2023/08/23 07:18:46;;;;;;;13.27;8.27;;;20.00;99.90;;;;;;5080385;28;20045;-56
2023/08/23 07:21:12;;;;;;;13.35;8.40;;;20.00;99.90;;;;;;5080301;28;20477;-56
2023/08/23 07:23:38;;;;;;;9.38;8.10;;;19.80;99.90;;;;;;5078926;28;20455;-57
2023/08/23 07:26:04;;;;;;;9.57;8.15;;;19.80;99.90;;;;;;5074787;28;20041;-56
2023/08/23 07:28:30;;;;;;;8.88;7.97;;;19.90;99.90;;;;;;5072907;28;20077;-56
2023/08/23 07:30:58;;;;;;;10.98;8.43;;;20.00;99.90;;;;;;5080677;28;20124;-56
2023/08/23 07:33:25;;;;;;;9.43;7.25;;;20.20;99.90;;;;;;5073875;28;20373;-56
2023/08/23 07:35:59;;;;;;;8.85;7.95;;;20.60;99.90;;;;;;5069784;28;20040;-57
2023/08/23 07:38:25;;;;;;;10.25;7.38;;;20.90;99.90;;;;;;5079039;28;20096;-56
2023/08/23 07:40:59;;;;;;;9.82;7.75;;;21.20;99.90;;;;;;5060232;28;20041;-57
2023/08/23 07:43:25;;;;;;;10.15;7.60;;;21.40;99.90;;;;;;5059589;28;20041;-56
2023/08/23 07:45:56;;;;;;;10.93;8.25;;;21.70;99.90;;;;;;5070127;28;20540;-56
2023/08/23 07:48:22;;;;;;;10.30;7.68;;;21.90;99.90;;;;;;5079189;28;20072;-57
2023/08/23 07:50:52;;;;;;;9.73;7.88;;;22.00;99.90;;;;;;5079193;28;20044;-56
2023/08/23 07:53:19;;;;;;;10.95;8.52;;;22.00;99.90;;;;;;5067825;28;20057;-56
2023/08/23 07:55:44;;;;;;;14.50;8.52;;;22.00;99.90;;;;;;5058711;28;20047;-56
2023/08/23 07:58:11;;;;;;;13.68;8.70;;;21.90;99.90;;;;;;5057317;28;20124;-57
2023/08/23 08:00:37;;;;;;;10.95;9.00;;;21.70;99.90;;;;;;5059253;28;20037;-56
2023/08/23 08:03:03;;;;;;;13.63;8.63;;;21.60;99.90;;;;;;5063279;28;20036;-57
2023/08/23 08:05:29;;;;;;;13.48;8.93;;;21.50;99.90;;;;;;5089844;28;20051;-57
2023/08/23 08:07:55;;;;;;;11.90;9.65;;;21.30;99.90;;;;;;5097861;28;20074;-57
2023/08/23 08:10:21;;;;;;;12.13;8.98;;;21.20;99.90;;;;;;5098542;28;20038;-57
2023/08/23 08:12:47;;;;;;;11.88;10.13;;;21.00;99.90;;;;;;5082946;28;20055;-56
2023/08/23 08:15:13;;;;;;;15.48;10.32;;;21.00;99.90;;;;;;5082798;28;20032;-57
2023/08/23 08:17:39;;;;;;;13.75;10.20;;;20.90;99.90;;;;;;5087856;28;20049;-56
2023/08/23 08:20:07;;;;;;;14.35;10.25;;;20.80;99.90;;;;;;5094283;28;20104;-56
2023/08/23 08:22:33;;;;;;;13.57;10.63;;;20.60;99.90;;;;;;5099229;28;20055;-57
2023/08/23 08:24:58;;;;;;;20.38;10.98;;;20.60;99.90;;;;;;5096514;28;20036;-56
2023/08/23 08:27:24;;;;;;;14.55;11.25;;;20.60;99.90;;;;;;5079540;28;20033;-56
2023/08/23 08:29:50;;;;;;;15.45;10.73;;;20.60;99.90;;;;;;5079778;28;20084;-56
2023/08/23 08:32:15;;;;;;;14.68;9.98;;;20.50;99.90;;;;;;5080711;28;20040;-56
2023/08/23 08:34:41;;;;;;;15.75;9.25;;;20.50;99.90;;;;;;5066714;28;20083;-56
2023/08/23 08:37:07;;;;;;;13.40;9.88;;;20.60;99.90;;;;;;5093731;28;20109;-57
2023/08/23 08:39:33;;;;;;;15.52;10.65;;;20.60;99.90;;;;;;5102650;28;20119;-56
2023/08/23 08:41:59;;;;;;;12.57;10.25;;;20.60;99.90;;;;;;5101399;28;20032;-56
2023/08/23 08:44:26;;;;;;;12.93;10.18;;;20.70;99.90;;;;;;5103016;28;20048;-57
2023/08/23 08:46:52;;;;;;;13.40;10.13;;;20.70;99.90;;;;;;5102929;28;20074;-56
2023/08/23 08:49:18;;;;;;;11.77;9.88;;;20.70;99.90;;;;;;5090755;28;20041;-57
2023/08/23 08:51:47;;;;;;;12.25;10.88;;;20.70;99.90;;;;;;5083185;28;20123;-56
2023/08/23 08:54:15;;;;;;;14.68;11.30;;;20.70;99.90;;;;;;5081012;28;20091;-56
2023/08/23 08:56:46;;;;;;;14.93;10.80;;;20.70;99.90;;;;;;5082667;28;20079;-56
2023/08/23 08:59:16;;;;;;;15.10;10.43;;;20.80;99.90;;;;;;5078254;28;20052;-56
2023/08/23 09:01:46;;;;;;;15.57;10.32;;;20.80;99.90;;;;;;5081343;28;20080;-56
2023/08/23 09:04:12;;;;;;;13.10;10.05;;;20.80;99.90;;;;;;5074315;28;20075;-56
2023/08/23 09:06:40;;;;;;;15.23;9.65;;;20.90;99.90;;;;;;5081193;28;20076;-56
2023/08/23 09:09:07;;;;;;;14.27;10.23;;;20.90;99.90;;;;;;5083009;28;20040;-56
2023/08/23 09:11:34;;;;;;;19.92;10.27;;;20.90;99.90;;;;;;5080095;28;20279;-56
2023/08/23 09:14:12;;;;;;;13.73;10.90;;;21.00;99.90;;;;;;5082750;28;20116;-57
2023/08/23 09:16:38;;;;;;;14.13;10.55;;;21.00;99.90;;;;;;5075891;28;20489;-56
2023/08/23 09:19:07;;;;;;;16.77;11.50;;;21.10;99.90;;;;;;5072149;28;20043;-56
2023/08/23 09:21:33;;;;;;;13.50;10.90;;;21.10;99.90;;;;;;5073349;28;20155;-56
2023/08/23 09:23:59;;;;;;;14.63;10.68;;;21.10;99.90;;;;;;5060505;28;20378;-56
2023/08/23 09:26:25;;;;;;;10.93;8.95;;;21.10;99.90;;;;;;5062546;28;20047;-57
2023/08/23 09:28:51;;;;;;;12.93;8.70;;;21.10;99.90;;;;;;5067275;28;20041;-56
2023/08/23 09:31:16;;;;;;;18.83;10.07;;;21.20;99.90;;;;;;5062239;28;20101;-56
2023/08/23 09:33:42;;;;;;;15.57;9.98;;;21.20;99.90;;;;;;5066413;28;20036;-57
2023/08/23 09:36:08;;;;;;;15.18;9.63;;;21.30;99.90;;;;;;5061353;28;20082;-56
2023/08/23 09:38:33;;;;;;;12.20;9.48;;;21.30;99.90;;;;;;5072474;28;20036;-56
2023/08/23 09:41:02;;;;;;;13.75;9.07;;;21.50;99.90;;;;;;5080331;28;20032;-56
2023/08/23 09:43:32;;;;;;;15.20;9.02;;;21.40;99.90;;;;;;5069625;28;20587;-57
2023/08/23 09:45:59;;;;;;;12.13;9.30;;;21.50;99.90;;;;;;5075333;28;20064;-57
2023/08/23 09:48:29;;;;;;;10.45;8.55;;;21.50;99.90;;;;;;5074789;28;20088;-56
2023/08/23 09:50:57;;;;;;;11.82;8.13;;;21.50;99.90;;;;;;5079936;28;20036;-56
2023/08/23 09:53:27;;;;;;;12.70;9.23;;;21.50;99.90;;;;;;5080471;28;20063;-57
2023/08/23 09:55:53;;;;;;;14.60;9.15;;;21.60;99.90;;;;;;5081793;28;20127;-56
2023/08/23 09:58:19;;;;;;;13.43;9.60;;;21.60;99.90;;;;;;5079857;28;20096;-56
2023/08/23 10:00:51;;;;;;;11.85;7.80;;;21.60;99.90;;;;;;5062450;28;20041;-56
2023/08/23 10:03:20;;;;;;;11.75;8.98;;;21.70;99.90;;;;;;5063279;28;20036;-56
2023/08/23 10:05:48;;;;;;;16.63;9.27;;;21.70;99.90;;;;;;5081129;28;20044;-56
2023/08/23 10:08:14;;;;;;;14.00;9.45;;;21.70;99.90;;;;;;5081233;28;20056;-56
2023/08/23 10:10:43;;;;;;;10.35;8.73;;;21.70;99.90;;;;;;5079263;28;20106;-56
2023/08/23 10:13:09;;;;;;;14.95;9.07;;;21.70;99.90;;;;;;5081556;28;20044;-56
2023/08/23 10:15:38;;;;;;;16.88;11.07;;;21.80;99.90;;;;;;5088430;28;20047;-57
2023/08/23 10:18:09;;;;;;;14.63;9.98;;;21.80;99.90;;;;;;5062735;28;20045;-56
2023/08/23 10:20:36;;;;;;;18.13;9.80;;;21.90;99.90;;;;;;5094999;28;20032;-56
2023/08/23 10:23:16;;;;;;;18.40;10.00;;;21.90;99.90;;;;;;5096251;28;20089;-56
2023/08/23 10:25:43;;;;;;;12.82;9.35;;;22.00;99.90;;;;;;5089312;28;20115;-56
2023/08/23 10:28:18;;;;;;;12.30;9.00;;;22.00;99.90;;;;;;5079443;28;20041;-59
2023/08/23 10:30:46;;;;;;;14.50;9.38;;;22.10;99.90;;;;;;5082653;28;20041;-58
2023/08/23 10:33:13;;;;;;;13.70;8.55;;;22.10;99.90;;;;;;5080702;28;20040;-57
2023/08/23 10:35:41;;;;;;;12.07;8.30;;;22.20;99.90;;;;;;5095033;28;20044;-56
2023/08/23 10:38:08;;;;;;;16.55;6.70;;;22.20;99.90;;;;;;5075544;28;20045;-56
2023/08/23 10:40:35;;;;;;;11.38;6.25;;;22.20;99.90;;;;;;5060908;28;20153;-56
2023/08/23 10:43:13;;;;;;;11.68;7.13;;;22.30;99.90;;;;;;5080316;28;20120;-57
2023/08/23 10:46:03;;;;;;;10.00;7.63;;;22.30;99.90;;;;;;5078478;28;20083;-56
2023/08/23 10:48:29;;;;;;;10.27;8.18;;;22.40;99.90;;;;;;5060677;28;20090;-57
2023/08/23 10:50:55;;;;;;;14.43;7.72;;;22.40;99.90;;;;;;5060089;28;20045;-56
2023/08/23 10:53:22;;;;;;;13.32;7.53;;;22.40;99.90;;;;;;5071900;28;20060;-56
2023/08/23 10:55:49;;;;;;;10.38;7.03;;;22.40;99.90;;;;;;5101677;28;20044;-57
2023/08/23 10:58:16;;;;;;;11.75;6.82;;;22.40;99.90;;;;;;5075210;28;20047;-56
2023/08/23 11:00:43;;;;;;;13.25;7.65;;;22.50;99.90;;;;;;5070325;28;20071;-57
2023/08/23 11:03:10;;;;;;;16.20;7.28;;;22.50;99.90;;;;;;5077330;28;20123;-56
2023/08/23 11:05:36;;;;;;;9.27;6.78;;;22.50;99.90;;;;;;5078725;28;20082;-56
2023/08/23 11:08:02;;;;;;;6.85;5.50;;;22.60;99.90;;;;;;5079735;28;20048;-56
2023/08/23 11:10:29;;;;;;;9.48;6.13;;;22.70;99.90;;;;;;5080039;28;20036;-56
2023/08/23 11:12:55;;;;;;;10.70;7.72;;;22.80;99.90;;;;;;5094597;28;20105;-56
2023/08/23 11:15:21;;;;;;;9.85;8.02;;;22.90;99.90;;;;;;5078386;28;20041;-56
2023/08/23 11:17:47;;;;;;;10.05;7.32;;;22.90;99.90;;;;;;5079390;28;20063;-56
2023/08/23 11:20:13;;;;;;;11.13;7.53;;;23.00;99.90;;;;;;5078355;28;20071;-56
2023/08/23 11:22:40;;;;;;;12.85;7.80;;;23.10;99.90;;;;;;5076973;28;20045;-57
2023/08/23 11:25:07;;;;;;;13.20;7.95;;;23.10;99.90;;;;;;5069817;28;20412;-59
2023/08/23 11:27:33;;;;;;;9.32;7.47;;;23.10;99.90;;;;;;5079070;28;20047;-56
2023/08/23 11:30:00;;;;;;;14.77;9.10;;;23.10;99.90;;;;;;5071634;28;20075;-57
2023/08/23 11:32:26;;;;;;;15.95;7.50;;;23.20;99.90;;;;;;5058601;28;20045;-57
2023/08/23 11:34:54;;;;;;;11.02;8.48;;;23.20;99.90;;;;;;5066426;28;20029;-56
2023/08/23 11:37:25;;;;;;;19.58;7.82;;;23.20;99.90;;;;;;5073492;28;20080;-56
2023/08/23 11:40:07;;;;;;;17.65;7.68;;;23.30;99.90;;;;;;5060430;28;20164;-56
2023/08/23 11:42:35;;;;;;;12.45;8.60;;;23.30;99.90;;;;;;5064503;28;20051;-56
2023/08/23 11:45:03;;;;;;;12.73;7.82;;;23.30;99.90;;;;;;5077759;28;20079;-56
2023/08/23 11:47:29;;;;;;;12.98;7.55;;;23.30;99.90;;;;;;5075357;28;20105;-54
2023/08/23 11:49:56;;;;;;;11.10;6.05;;;23.40;99.90;;;;;;5078374;28;20048;-54
2023/08/23 11:52:21;;;;;;;8.98;6.05;;;23.40;99.90;;;;;;5080268;28;20044;-54
2023/08/23 11:54:50;;;;;;;10.32;7.32;;;23.40;99.90;;;;;;5083894;28;20064;-54
2023/08/23 11:57:19;;;;;;;8.88;4.72;;;23.60;99.90;;;;;;5085440;28;20044;-56
2023/08/23 11:59:46;;;;;;;9.68;4.85;;;23.70;99.90;;;;;;5060137;28;20045;-55
2023/08/23 12:02:12;;;;;;;9.15;3.70;;;23.80;99.90;;;;;;5065962;28;20051;-56
2023/08/23 12:04:42;;;;;;;10.02;4.25;;;23.90;99.90;;;;;;5080036;28;20079;-55
2023/08/23 12:07:08;;;;;;;9.60;2.92;;;24.00;99.90;;;;;;5083640;28;20075;-55
2023/08/23 12:09:34;;;;;;;8.60;4.32;;;24.00;99.90;;;;;;5067525;28;20735;-55
2023/08/23 12:12:00;;;;;;;7.88;4.75;;;24.00;99.90;;;;;;5072344;28;20044;-54
2023/08/23 12:14:28;;;;;;;7.95;4.82;;;24.00;99.90;;;;;;5070942;28;20532;-55
2023/08/23 12:16:54;;;;;;;7.63;4.53;;;24.10;99.90;;;;;;5063230;28;20052;-54
2023/08/23 12:19:20;;;;;;;10.20;4.30;;;24.10;99.90;;;;;;5065845;28;20904;-55
2023/08/23 12:21:46;;;;;;;7.80;4.70;;;24.20;99.90;;;;;;5063657;28;20040;-55
2023/08/23 12:24:12;;;;;;;6.00;3.78;;;24.20;99.90;;;;;;5068039;28;20040;-55
2023/08/23 12:26:38;;;;;;;6.50;3.88;;;24.20;99.90;;;;;;5086173;28;20070;-55
2023/08/23 12:29:04;;;;;;;6.97;4.88;;;24.20;99.90;;;;;;5079627;28;20119;-55
2023/08/23 12:31:29;;;;;;;10.60;4.72;;;24.30;99.90;;;;;;5063531;28;20401;-56